sensor_id;sensor_type;location;lat;lon;timestamp;P1;durP1;ratioP1;P2;durP2;ratioP2
77409;SDS011;66481;51.332;22.804;2023-10-09T00:02:38;4.43;;;3.15;;
77409;SDS011;66481;51.332;22.804;2023-10-09T00:06:43;4.57;;;2.65;;
77409;SDS011;66481;51.332;22.804;2023-10-09T00:10:44;6.15;;;3.08;;
77409;SDS011;66481;51.332;22.804;2023-10-09T00:14:57;4.20;;;2.47;;
77409;SDS011;66481;51.332;22.804;2023-10-09T00:19:12;6.07;;;3.03;;
77409;SDS011;66481;51.332;22.804;2023-10-09T00:23:33;3.78;;;2.10;;
77409;SDS011;66481;51.332;22.804;2023-10-09T00:27:34;7.47;;;2.33;;
77409;SDS011;66481;51.332;22.804;2023-10-09T00:31:36;5.13;;;2.40;;
77409;SDS011;66481;51.332;22.804;2023-10-09T00:35:39;4.20;;;2.55;;
77409;SDS011;66481;51.332;22.804;2023-10-09T00:39:54;7.78;;;3.05;;
77409;SDS011;66481;51.332;22.804;2023-10-09T00:43:58;5.90;;;2.47;;
77409;SDS011;66481;51.332;22.804;2023-10-09T00:48:00;5.25;;;1.85;;
77409;SDS011;66481;51.332;22.804;2023-10-09T00:52:03;5.32;;;2.40;;
77409;SDS011;66481;51.332;22.804;2023-10-09T00:56:04;7.30;;;3.38;;
77409;SDS011;66481;51.332;22.804;2023-10-09T01:00:29;4.43;;;2.47;;
77409;SDS011;66481;51.332;22.804;2023-10-09T01:04:45;8.05;;;2.83;;
77409;SDS011;66481;51.332;22.804;2023-10-09T01:08:47;4.25;;;2.45;;
77409;SDS011;66481;51.332;22.804;2023-10-09T01:13:09;6.32;;;2.78;;
77409;SDS011;66481;51.332;22.804;2023-10-09T01:17:10;4.97;;;2.83;;
77409;SDS011;66481;51.332;22.804;2023-10-09T01:21:12;5.68;;;3.05;;
77409;SDS011;66481;51.332;22.804;2023-10-09T01:25:14;8.23;;;3.13;;
77409;SDS011;66481;51.332;22.804;2023-10-09T01:29:17;6.30;;;3.15;;
77409;SDS011;66481;51.332;22.804;2023-10-09T01:33:22;9.60;;;3.88;;
77409;SDS011;66481;51.332;22.804;2023-10-09T01:37:24;6.88;;;3.75;;
77409;SDS011;66481;51.332;22.804;2023-10-09T01:41:30;8.93;;;5.28;;
77409;SDS011;66481;51.332;22.804;2023-10-09T01:45:34;8.98;;;4.53;;
77409;SDS011;66481;51.332;22.804;2023-10-09T01:49:42;8.95;;;4.50;;
77409;SDS011;66481;51.332;22.804;2023-10-09T01:53:49;6.85;;;3.53;;
77409;SDS011;66481;51.332;22.804;2023-10-09T01:57:57;8.50;;;3.95;;
77409;SDS011;66481;51.332;22.804;2023-10-09T02:01:58;7.68;;;3.90;;
77409;SDS011;66481;51.332;22.804;2023-10-09T02:06:01;6.00;;;3.10;;
77409;SDS011;66481;51.332;22.804;2023-10-09T02:10:05;6.45;;;3.85;;
77409;SDS011;66481;51.332;22.804;2023-10-09T02:14:12;5.35;;;3.72;;
77409;SDS011;66481;51.332;22.804;2023-10-09T02:18:24;6.63;;;3.42;;
77409;SDS011;66481;51.332;22.804;2023-10-09T02:22:34;7.50;;;4.25;;
77409;SDS011;66481;51.332;22.804;2023-10-09T02:26:35;6.93;;;3.53;;
77409;SDS011;66481;51.332;22.804;2023-10-09T02:30:38;6.45;;;3.47;;
77409;SDS011;66481;51.332;22.804;2023-10-09T02:34:41;5.45;;;3.00;;
77409;SDS011;66481;51.332;22.804;2023-10-09T02:38:47;6.00;;;3.55;;
77409;SDS011;66481;51.332;22.804;2023-10-09T02:42:49;7.93;;;3.72;;
77409;SDS011;66481;51.332;22.804;2023-10-09T02:46:50;6.90;;;3.47;;
77409;SDS011;66481;51.332;22.804;2023-10-09T02:50:51;7.22;;;3.97;;
77409;SDS011;66481;51.332;22.804;2023-10-09T02:54:53;7.55;;;3.45;;
77409;SDS011;66481;51.332;22.804;2023-10-09T02:59:00;6.85;;;3.58;;
77409;SDS011;66481;51.332;22.804;2023-10-09T03:03:06;5.30;;;2.83;;
77409;SDS011;66481;51.332;22.804;2023-10-09T03:07:07;5.22;;;3.30;;
77409;SDS011;66481;51.332;22.804;2023-10-09T03:11:11;5.35;;;3.03;;
77409;SDS011;66481;51.332;22.804;2023-10-09T03:15:13;5.82;;;3.63;;
77409;SDS011;66481;51.332;22.804;2023-10-09T03:19:14;6.53;;;3.67;;
77409;SDS011;66481;51.332;22.804;2023-10-09T03:23:15;5.65;;;3.15;;
77409;SDS011;66481;51.332;22.804;2023-10-09T03:27:17;5.68;;;2.88;;
77409;SDS011;66481;51.332;22.804;2023-10-09T03:31:18;7.13;;;3.47;;
77409;SDS011;66481;51.332;22.804;2023-10-09T03:35:20;7.82;;;3.30;;
77409;SDS011;66481;51.332;22.804;2023-10-09T03:39:25;4.05;;;2.60;;
77409;SDS011;66481;51.332;22.804;2023-10-09T03:43:47;6.53;;;3.45;;
77409;SDS011;66481;51.332;22.804;2023-10-09T03:47:49;9.27;;;3.65;;
77409;SDS011;66481;51.332;22.804;2023-10-09T03:51:49;5.20;;;4.07;;
77409;SDS011;66481;51.332;22.804;2023-10-09T03:55:51;5.88;;;2.80;;
77409;SDS011;66481;51.332;22.804;2023-10-09T03:59:52;5.00;;;2.53;;
77409;SDS011;66481;51.332;22.804;2023-10-09T04:03:52;6.22;;;3.58;;
77409;SDS011;66481;51.332;22.804;2023-10-09T04:07:59;7.70;;;3.35;;
77409;SDS011;66481;51.332;22.804;2023-10-09T04:12:02;6.65;;;3.92;;
77409;SDS011;66481;51.332;22.804;2023-10-09T04:16:12;10.35;;;3.85;;
77409;SDS011;66481;51.332;22.804;2023-10-09T04:20:39;5.90;;;3.35;;
77409;SDS011;66481;51.332;22.804;2023-10-09T04:24:59;7.28;;;3.65;;
77409;SDS011;66481;51.332;22.804;2023-10-09T04:29:00;7.47;;;3.78;;
77409;SDS011;66481;51.332;22.804;2023-10-09T04:33:03;9.60;;;3.95;;
77409;SDS011;66481;51.332;22.804;2023-10-09T04:37:11;9.02;;;3.97;;
77409;SDS011;66481;51.332;22.804;2023-10-09T04:41:15;7.07;;;4.22;;
77409;SDS011;66481;51.332;22.804;2023-10-09T04:45:27;7.38;;;3.83;;
77409;SDS011;66481;51.332;22.804;2023-10-09T04:49:50;5.72;;;3.22;;
77409;SDS011;66481;51.332;22.804;2023-10-09T04:54:03;5.25;;;3.42;;
77409;SDS011;66481;51.332;22.804;2023-10-09T04:58:13;6.78;;;3.53;;
77409;SDS011;66481;51.332;22.804;2023-10-09T05:02:24;6.45;;;3.42;;
77409;SDS011;66481;51.332;22.804;2023-10-09T05:06:36;5.55;;;3.60;;
77409;SDS011;66481;51.332;22.804;2023-10-09T05:10:43;6.82;;;3.78;;
77409;SDS011;66481;51.332;22.804;2023-10-09T05:15:04;4.78;;;3.05;;
77409;SDS011;66481;51.332;22.804;2023-10-09T05:19:15;7.22;;;3.35;;
77409;SDS011;66481;51.332;22.804;2023-10-09T05:23:42;9.68;;;3.35;;
77409;SDS011;66481;51.332;22.804;2023-10-09T05:27:49;6.35;;;3.00;;
77409;SDS011;66481;51.332;22.804;2023-10-09T05:32:13;7.85;;;3.28;;
77409;SDS011;66481;51.332;22.804;2023-10-09T05:36:13;7.55;;;3.92;;
77409;SDS011;66481;51.332;22.804;2023-10-09T05:40:26;4.22;;;2.53;;
77409;SDS011;66481;51.332;22.804;2023-10-09T05:44:31;5.72;;;3.08;;
77409;SDS011;66481;51.332;22.804;2023-10-09T05:48:50;5.97;;;3.10;;
77409;SDS011;66481;51.332;22.804;2023-10-09T05:52:56;5.13;;;2.83;;
77409;SDS011;66481;51.332;22.804;2023-10-09T05:57:05;5.05;;;2.97;;
77409;SDS011;66481;51.332;22.804;2023-10-09T06:01:25;6.28;;;3.33;;
77409;SDS011;66481;51.332;22.804;2023-10-09T06:05:49;5.22;;;3.33;;
77409;SDS011;66481;51.332;22.804;2023-10-09T06:09:58;5.35;;;3.20;;
77409;SDS011;66481;51.332;22.804;2023-10-09T06:14:11;9.65;;;3.22;;
77409;SDS011;66481;51.332;22.804;2023-10-09T06:18:14;8.95;;;3.58;;
77409;SDS011;66481;51.332;22.804;2023-10-09T06:22:33;3.85;;;2.47;;
77409;SDS011;66481;51.332;22.804;2023-10-09T06:26:37;6.47;;;3.38;;
77409;SDS011;66481;51.332;22.804;2023-10-09T06:30:38;6.00;;;3.20;;
77409;SDS011;66481;51.332;22.804;2023-10-09T06:34:49;7.55;;;4.35;;
77409;SDS011;66481;51.332;22.804;2023-10-09T06:38:53;6.07;;;3.22;;
77409;SDS011;66481;51.332;22.804;2023-10-09T06:43:14;5.00;;;2.92;;
77409;SDS011;66481;51.332;22.804;2023-10-09T06:47:27;4.68;;;2.63;;
77409;SDS011;66481;51.332;22.804;2023-10-09T06:51:28;5.43;;;3.25;;
77409;SDS011;66481;51.332;22.804;2023-10-09T06:55:35;4.93;;;3.42;;
77409;SDS011;66481;51.332;22.804;2023-10-09T06:59:48;6.22;;;3.13;;
77409;SDS011;66481;51.332;22.804;2023-10-09T07:04:08;8.85;;;4.70;;
77409;SDS011;66481;51.332;22.804;2023-10-09T07:08:20;7.20;;;3.50;;
77409;SDS011;66481;51.332;22.804;2023-10-09T07:12:32;5.55;;;2.80;;
77409;SDS011;66481;51.332;22.804;2023-10-09T07:16:33;6.68;;;3.60;;
77409;SDS011;66481;51.332;22.804;2023-10-09T07:20:57;5.72;;;3.08;;
77409;SDS011;66481;51.332;22.804;2023-10-09T07:25:02;6.25;;;3.08;;
77409;SDS011;66481;51.332;22.804;2023-10-09T07:29:15;7.00;;;3.22;;
77409;SDS011;66481;51.332;22.804;2023-10-09T07:33:16;7.70;;;3.00;;
77409;SDS011;66481;51.332;22.804;2023-10-09T07:37:17;5.97;;;2.83;;
77409;SDS011;66481;51.332;22.804;2023-10-09T07:41:19;4.28;;;2.55;;
77409;SDS011;66481;51.332;22.804;2023-10-09T07:45:20;7.85;;;3.42;;
77409;SDS011;66481;51.332;22.804;2023-10-09T07:49:21;4.95;;;2.92;;
77409;SDS011;66481;51.332;22.804;2023-10-09T07:53:26;5.35;;;3.17;;
77409;SDS011;66481;51.332;22.804;2023-10-09T07:57:29;8.43;;;3.50;;
77409;SDS011;66481;51.332;22.804;2023-10-09T08:01:40;5.70;;;3.15;;
77409;SDS011;66481;51.332;22.804;2023-10-09T08:05:53;6.47;;;3.13;;
77409;SDS011;66481;51.332;22.804;2023-10-09T08:10:07;7.82;;;4.18;;
77409;SDS011;66481;51.332;22.804;2023-10-09T08:14:18;6.10;;;3.33;;
77409;SDS011;66481;51.332;22.804;2023-10-09T08:18:34;7.40;;;3.45;;
77409;SDS011;66481;51.332;22.804;2023-10-09T08:22:45;7.00;;;3.53;;
77409;SDS011;66481;51.332;22.804;2023-10-09T08:27:08;6.10;;;3.47;;
77409;SDS011;66481;51.332;22.804;2023-10-09T08:31:28;6.13;;;3.15;;
77409;SDS011;66481;51.332;22.804;2023-10-09T08:39:48;7.18;;;2.92;;
77409;SDS011;66481;51.332;22.804;2023-10-09T08:43:51;5.90;;;2.67;;
77409;SDS011;66481;51.332;22.804;2023-10-09T08:47:53;7.05;;;2.53;;
77409;SDS011;66481;51.332;22.804;2023-10-09T08:51:57;6.18;;;3.50;;
77409;SDS011;66481;51.332;22.804;2023-10-09T08:56:03;9.40;;;3.53;;
77409;SDS011;66481;51.332;22.804;2023-10-09T09:00:05;5.97;;;2.95;;
77409;SDS011;66481;51.332;22.804;2023-10-09T09:04:10;7.70;;;3.25;;
77409;SDS011;66481;51.332;22.804;2023-10-09T09:08:20;17.48;;;8.63;;
77409;SDS011;66481;51.332;22.804;2023-10-09T09:12:24;10.23;;;5.50;;
77409;SDS011;66481;51.332;22.804;2023-10-09T09:16:32;9.15;;;4.50;;
77409;SDS011;66481;51.332;22.804;2023-10-09T09:20:35;13.35;;;4.43;;
77409;SDS011;66481;51.332;22.804;2023-10-09T09:24:56;7.05;;;3.17;;
77409;SDS011;66481;51.332;22.804;2023-10-09T09:29:04;8.82;;;4.30;;
77409;SDS011;66481;51.332;22.804;2023-10-09T09:33:18;8.27;;;2.97;;
77409;SDS011;66481;51.332;22.804;2023-10-09T09:37:40;6.80;;;2.95;;
77409;SDS011;66481;51.332;22.804;2023-10-09T09:41:44;4.05;;;2.20;;
77409;SDS011;66481;51.332;22.804;2023-10-09T09:45:46;7.72;;;3.28;;
77409;SDS011;66481;51.332;22.804;2023-10-09T09:49:50;5.18;;;3.25;;
77409;SDS011;66481;51.332;22.804;2023-10-09T09:57:54;5.13;;;1.83;;
77409;SDS011;66481;51.332;22.804;2023-10-09T10:01:58;5.95;;;2.38;;
77409;SDS011;66481;51.332;22.804;2023-10-09T10:06:07;9.07;;;4.25;;
77409;SDS011;66481;51.332;22.804;2023-10-09T10:14:58;8.38;;;3.80;;
77409;SDS011;66481;51.332;22.804;2023-10-09T10:19:05;7.43;;;2.63;;
77409;SDS011;66481;51.332;22.804;2023-10-09T10:23:19;5.28;;;2.88;;
77409;SDS011;66481;51.332;22.804;2023-10-09T10:27:21;4.65;;;2.88;;
77409;SDS011;66481;51.332;22.804;2023-10-09T10:36:09;4.72;;;2.28;;
77409;SDS011;66481;51.332;22.804;2023-10-09T10:40:09;4.80;;;2.33;;
77409;SDS011;66481;51.332;22.804;2023-10-09T10:44:29;8.05;;;2.85;;
77409;SDS011;66481;51.332;22.804;2023-10-09T10:48:35;6.88;;;3.55;;
77409;SDS011;66481;51.332;22.804;2023-10-09T10:52:39;5.47;;;3.05;;
77409;SDS011;66481;51.332;22.804;2023-10-09T10:56:43;5.50;;;2.88;;
77409;SDS011;66481;51.332;22.804;2023-10-09T11:00:51;4.28;;;1.90;;
77409;SDS011;66481;51.332;22.804;2023-10-09T11:04:58;4.90;;;2.22;;
77409;SDS011;66481;51.332;22.804;2023-10-09T11:09:23;4.15;;;2.15;;
77409;SDS011;66481;51.332;22.804;2023-10-09T11:13:35;4.40;;;2.33;;
77409;SDS011;66481;51.332;22.804;2023-10-09T11:17:37;5.15;;;2.55;;
77409;SDS011;66481;51.332;22.804;2023-10-09T11:21:40;2.63;;;1.85;;
77409;SDS011;66481;51.332;22.804;2023-10-09T11:25:43;5.38;;;2.28;;
77409;SDS011;66481;51.332;22.804;2023-10-09T11:29:53;3.08;;;2.00;;
77409;SDS011;66481;51.332;22.804;2023-10-09T11:33:55;2.95;;;2.05;;
77409;SDS011;66481;51.332;22.804;2023-10-09T11:37:56;4.10;;;1.95;;
77409;SDS011;66481;51.332;22.804;2023-10-09T11:42:01;5.35;;;1.98;;
77409;SDS011;66481;51.332;22.804;2023-10-09T11:46:09;4.55;;;2.53;;
77409;SDS011;66481;51.332;22.804;2023-10-09T11:50:14;4.85;;;2.70;;
77409;SDS011;66481;51.332;22.804;2023-10-09T11:54:30;3.13;;;1.90;;
77409;SDS011;66481;51.332;22.804;2023-10-09T11:58:32;4.30;;;2.10;;
77409;SDS011;66481;51.332;22.804;2023-10-09T12:02:33;6.47;;;3.13;;
77409;SDS011;66481;51.332;22.804;2023-10-09T12:06:34;4.68;;;2.13;;
77409;SDS011;66481;51.332;22.804;2023-10-09T12:10:36;6.28;;;2.80;;
77409;SDS011;66481;51.332;22.804;2023-10-09T12:14:38;3.88;;;2.03;;
77409;SDS011;66481;51.332;22.804;2023-10-09T12:18:40;5.68;;;2.63;;
77409;SDS011;66481;51.332;22.804;2023-10-09T12:22:43;5.05;;;3.00;;
77409;SDS011;66481;51.332;22.804;2023-10-09T12:26:44;5.43;;;2.53;;
77409;SDS011;66481;51.332;22.804;2023-10-09T12:34:51;5.65;;;3.08;;
77409;SDS011;66481;51.332;22.804;2023-10-09T12:38:52;5.80;;;3.08;;
77409;SDS011;66481;51.332;22.804;2023-10-09T12:42:59;5.72;;;2.97;;
77409;SDS011;66481;51.332;22.804;2023-10-09T12:47:00;7.32;;;3.40;;
77409;SDS011;66481;51.332;22.804;2023-10-09T12:51:05;7.60;;;3.90;;
77409;SDS011;66481;51.332;22.804;2023-10-09T12:55:07;6.00;;;3.53;;
77409;SDS011;66481;51.332;22.804;2023-10-09T12:59:10;6.85;;;3.35;;
77409;SDS011;66481;51.332;22.804;2023-10-09T13:03:16;6.50;;;3.97;;
77409;SDS011;66481;51.332;22.804;2023-10-09T13:07:18;8.45;;;4.05;;
77409;SDS011;66481;51.332;22.804;2023-10-09T13:11:22;8.27;;;4.20;;
77409;SDS011;66481;51.332;22.804;2023-10-09T13:20:46;7.93;;;4.05;;
77409;SDS011;66481;51.332;22.804;2023-10-09T13:24:47;9.30;;;4.55;;
77409;SDS011;66481;51.332;22.804;2023-10-09T13:28:54;8.50;;;4.20;;
77409;SDS011;66481;51.332;22.804;2023-10-09T13:32:56;9.20;;;4.88;;
77409;SDS011;66481;51.332;22.804;2023-10-09T13:36:57;8.45;;;5.32;;
77409;SDS011;66481;51.332;22.804;2023-10-09T13:41:10;12.52;;;4.82;;
77409;SDS011;66481;51.332;22.804;2023-10-09T13:45:13;10.43;;;5.10;;
77409;SDS011;66481;51.332;22.804;2023-10-09T13:53:18;7.57;;;4.13;;
77409;SDS011;66481;51.332;22.804;2023-10-09T13:57:19;10.25;;;4.45;;
77409;SDS011;66481;51.332;22.804;2023-10-09T14:01:23;7.53;;;3.83;;
77409;SDS011;66481;51.332;22.804;2023-10-09T14:05:33;8.80;;;4.28;;
77409;SDS011;66481;51.332;22.804;2023-10-09T14:09:34;9.50;;;4.22;;
77409;SDS011;66481;51.332;22.804;2023-10-09T14:14:04;8.43;;;5.07;;
77409;SDS011;66481;51.332;22.804;2023-10-09T14:18:10;7.88;;;4.15;;
77409;SDS011;66481;51.332;22.804;2023-10-09T14:22:12;10.10;;;4.80;;
77409;SDS011;66481;51.332;22.804;2023-10-09T14:26:16;9.68;;;4.75;;
77409;SDS011;66481;51.332;22.804;2023-10-09T14:30:19;13.35;;;4.43;;
77409;SDS011;66481;51.332;22.804;2023-10-09T14:34:31;13.43;;;5.22;;
77409;SDS011;66481;51.332;22.804;2023-10-09T14:38:36;7.82;;;4.25;;
77409;SDS011;66481;51.332;22.804;2023-10-09T14:42:39;11.52;;;5.32;;
77409;SDS011;66481;51.332;22.804;2023-10-09T14:46:44;8.90;;;4.90;;
77409;SDS011;66481;51.332;22.804;2023-10-09T14:50:46;11.90;;;5.63;;
77409;SDS011;66481;51.332;22.804;2023-10-09T14:54:55;11.88;;;5.50;;
77409;SDS011;66481;51.332;22.804;2023-10-09T14:58:59;10.20;;;5.25;;
77409;SDS011;66481;51.332;22.804;2023-10-09T15:03:01;14.10;;;5.70;;
77409;SDS011;66481;51.332;22.804;2023-10-09T15:07:06;10.13;;;5.20;;
77409;SDS011;66481;51.332;22.804;2023-10-09T15:11:07;21.73;;;7.90;;
77409;SDS011;66481;51.332;22.804;2023-10-09T15:15:09;10.80;;;5.25;;
77409;SDS011;66481;51.332;22.804;2023-10-09T15:19:14;9.80;;;5.25;;
77409;SDS011;66481;51.332;22.804;2023-10-09T15:23:17;13.88;;;7.38;;
77409;SDS011;66481;51.332;22.804;2023-10-09T15:27:20;14.40;;;7.72;;
77409;SDS011;66481;51.332;22.804;2023-10-09T15:31:21;17.30;;;9.02;;
77409;SDS011;66481;51.332;22.804;2023-10-09T15:35:23;14.77;;;7.28;;
77409;SDS011;66481;51.332;22.804;2023-10-09T15:39:24;12.95;;;7.53;;
77409;SDS011;66481;51.332;22.804;2023-10-09T15:43:28;9.30;;;5.78;;
77409;SDS011;66481;51.332;22.804;2023-10-09T15:47:30;12.70;;;6.80;;
77409;SDS011;66481;51.332;22.804;2023-10-09T15:51:33;10.68;;;6.68;;
77409;SDS011;66481;51.332;22.804;2023-10-09T15:55:34;20.20;;;7.65;;
77409;SDS011;66481;51.332;22.804;2023-10-09T15:59:38;11.82;;;7.18;;
77409;SDS011;66481;51.332;22.804;2023-10-09T16:03:41;25.15;;;9.77;;
77409;SDS011;66481;51.332;22.804;2023-10-09T16:07:48;32.83;;;13.85;;
77409;SDS011;66481;51.332;22.804;2023-10-09T16:11:49;24.70;;;11.45;;
77409;SDS011;66481;51.332;22.804;2023-10-09T16:15:50;23.30;;;11.02;;
77409;SDS011;66481;51.332;22.804;2023-10-09T16:19:51;24.67;;;13.32;;
77409;SDS011;66481;51.332;22.804;2023-10-09T16:23:52;50.80;;;23.88;;
77409;SDS011;66481;51.332;22.804;2023-10-09T16:27:54;62.10;;;32.58;;
77409;SDS011;66481;51.332;22.804;2023-10-09T16:31:56;47.92;;;24.35;;
77409;SDS011;66481;51.332;22.804;2023-10-09T16:35:58;22.55;;;13.30;;
77409;SDS011;66481;51.332;22.804;2023-10-09T16:40:00;20.38;;;10.73;;
77409;SDS011;66481;51.332;22.804;2023-10-09T16:44:07;17.73;;;10.70;;
77409;SDS011;66481;51.332;22.804;2023-10-09T16:48:13;26.02;;;12.80;;
77409;SDS011;66481;51.332;22.804;2023-10-09T16:52:16;33.72;;;17.23;;
77409;SDS011;66481;51.332;22.804;2023-10-09T16:56:19;72.57;;;31.48;;
77409;SDS011;66481;51.332;22.804;2023-10-09T17:00:20;58.95;;;27.42;;
77409;SDS011;66481;51.332;22.804;2023-10-09T17:04:35;32.22;;;15.65;;
77409;SDS011;66481;51.332;22.804;2023-10-09T17:08:37;25.45;;;13.02;;
77409;SDS011;66481;51.332;22.804;2023-10-09T17:12:42;23.48;;;12.65;;
77409;SDS011;66481;51.332;22.804;2023-10-09T17:16:47;24.70;;;14.20;;
77409;SDS011;66481;51.332;22.804;2023-10-09T17:20:48;21.23;;;11.55;;
77409;SDS011;66481;51.332;22.804;2023-10-09T17:24:50;24.77;;;13.27;;
77409;SDS011;66481;51.332;22.804;2023-10-09T17:28:53;26.83;;;12.98;;
77409;SDS011;66481;51.332;22.804;2023-10-09T17:32:54;26.42;;;13.43;;
77409;SDS011;66481;51.332;22.804;2023-10-09T17:41:00;42.05;;;19.05;;
77409;SDS011;66481;51.332;22.804;2023-10-09T17:45:04;58.22;;;25.42;;
77409;SDS011;66481;51.332;22.804;2023-10-09T17:49:06;56.47;;;23.55;;
77409;SDS011;66481;51.332;22.804;2023-10-09T17:53:07;46.78;;;22.45;;
77409;SDS011;66481;51.332;22.804;2023-10-09T17:57:09;36.42;;;18.63;;
77409;SDS011;66481;51.332;22.804;2023-10-09T18:01:11;38.90;;;17.98;;
77409;SDS011;66481;51.332;22.804;2023-10-09T18:05:13;31.15;;;15.40;;
77409;SDS011;66481;51.332;22.804;2023-10-09T18:09:15;31.98;;;16.40;;
77409;SDS011;66481;51.332;22.804;2023-10-09T18:13:18;42.90;;;19.27;;
77409;SDS011;66481;51.332;22.804;2023-10-09T18:17:20;38.20;;;19.73;;
77409;SDS011;66481;51.332;22.804;2023-10-09T18:21:24;36.47;;;18.85;;
77409;SDS011;66481;51.332;22.804;2023-10-09T18:25:26;35.08;;;20.00;;
77409;SDS011;66481;51.332;22.804;2023-10-09T18:29:27;36.53;;;18.17;;
77409;SDS011;66481;51.332;22.804;2023-10-09T18:33:31;30.58;;;17.80;;
77409;SDS011;66481;51.332;22.804;2023-10-09T18:37:34;37.53;;;18.45;;
77409;SDS011;66481;51.332;22.804;2023-10-09T18:41:41;32.95;;;17.60;;
77409;SDS011;66481;51.332;22.804;2023-10-09T18:45:47;35.80;;;19.15;;
77409;SDS011;66481;51.332;22.804;2023-10-09T18:49:51;34.13;;;17.58;;
77409;SDS011;66481;51.332;22.804;2023-10-09T18:53:52;39.10;;;18.60;;
77409;SDS011;66481;51.332;22.804;2023-10-09T18:57:53;29.58;;;17.50;;
77409;SDS011;66481;51.332;22.804;2023-10-09T19:01:55;35.75;;;18.95;;
77409;SDS011;66481;51.332;22.804;2023-10-09T19:05:58;33.20;;;17.88;;
77409;SDS011;66481;51.332;22.804;2023-10-09T19:10:00;35.70;;;17.70;;
77409;SDS011;66481;51.332;22.804;2023-10-09T19:14:01;34.67;;;18.10;;
77409;SDS011;66481;51.332;22.804;2023-10-09T19:18:03;37.42;;;20.05;;
77409;SDS011;66481;51.332;22.804;2023-10-09T19:22:07;36.20;;;19.42;;
77409;SDS011;66481;51.332;22.804;2023-10-09T19:26:10;39.78;;;22.00;;
77409;SDS011;66481;51.332;22.804;2023-10-09T19:30:20;40.90;;;20.88;;
77409;SDS011;66481;51.332;22.804;2023-10-09T19:34:21;41.20;;;21.48;;
77409;SDS011;66481;51.332;22.804;2023-10-09T19:38:22;42.90;;;23.40;;
77409;SDS011;66481;51.332;22.804;2023-10-09T19:42:24;46.42;;;25.50;;
77409;SDS011;66481;51.332;22.804;2023-10-09T19:46:25;46.65;;;25.30;;
77409;SDS011;66481;51.332;22.804;2023-10-09T19:50:28;51.83;;;24.60;;
77409;SDS011;66481;51.332;22.804;2023-10-09T19:54:29;47.67;;;26.25;;
77409;SDS011;66481;51.332;22.804;2023-10-09T19:58:31;48.78;;;25.52;;
77409;SDS011;66481;51.332;22.804;2023-10-09T20:02:32;48.97;;;25.05;;
77409;SDS011;66481;51.332;22.804;2023-10-09T20:06:37;48.80;;;25.77;;
77409;SDS011;66481;51.332;22.804;2023-10-09T20:10:40;43.55;;;22.33;;
77409;SDS011;66481;51.332;22.804;2023-10-09T20:14:44;46.17;;;20.83;;
77409;SDS011;66481;51.332;22.804;2023-10-09T20:18:46;47.83;;;22.15;;
77409;SDS011;66481;51.332;22.804;2023-10-09T20:22:50;42.92;;;22.77;;
77409;SDS011;66481;51.332;22.804;2023-10-09T20:26:53;44.80;;;23.90;;
77409;SDS011;66481;51.332;22.804;2023-10-09T20:30:56;37.90;;;24.80;;
77409;SDS011;66481;51.332;22.804;2023-10-09T20:35:02;42.08;;;21.60;;
77409;SDS011;66481;51.332;22.804;2023-10-09T20:39:12;37.92;;;20.20;;
77409;SDS011;66481;51.332;22.804;2023-10-09T20:43:16;40.85;;;20.88;;
77409;SDS011;66481;51.332;22.804;2023-10-09T20:47:18;38.80;;;21.20;;
77409;SDS011;66481;51.332;22.804;2023-10-09T20:51:19;43.60;;;21.90;;
77409;SDS011;66481;51.332;22.804;2023-10-09T20:55:21;40.28;;;22.88;;
77409;SDS011;66481;51.332;22.804;2023-10-09T20:59:24;41.63;;;21.38;;
77409;SDS011;66481;51.332;22.804;2023-10-09T21:03:26;44.60;;;24.17;;
77409;SDS011;66481;51.332;22.804;2023-10-09T21:07:28;49.67;;;26.25;;
77409;SDS011;66481;51.332;22.804;2023-10-09T21:11:31;43.85;;;25.42;;
77409;SDS011;66481;51.332;22.804;2023-10-09T21:19:42;42.65;;;22.67;;
77409;SDS011;66481;51.332;22.804;2023-10-09T21:23:43;43.55;;;23.48;;
77409;SDS011;66481;51.332;22.804;2023-10-09T21:27:45;53.10;;;25.52;;
77409;SDS011;66481;51.332;22.804;2023-10-09T21:31:46;38.95;;;22.48;;
77409;SDS011;66481;51.332;22.804;2023-10-09T21:35:49;42.67;;;24.38;;
77409;SDS011;66481;51.332;22.804;2023-10-09T21:39:51;43.47;;;22.00;;
77409;SDS011;66481;51.332;22.804;2023-10-09T21:43:52;38.08;;;21.83;;
77409;SDS011;66481;51.332;22.804;2023-10-09T21:47:55;40.72;;;22.23;;
77409;SDS011;66481;51.332;22.804;2023-10-09T21:51:56;50.17;;;24.88;;
77409;SDS011;66481;51.332;22.804;2023-10-09T21:56:10;42.42;;;23.80;;
77409;SDS011;66481;51.332;22.804;2023-10-09T22:00:14;42.17;;;22.63;;
77409;SDS011;66481;51.332;22.804;2023-10-09T22:04:19;44.90;;;23.73;;
77409;SDS011;66481;51.332;22.804;2023-10-09T22:08:20;43.53;;;21.13;;
77409;SDS011;66481;51.332;22.804;2023-10-09T22:12:21;38.78;;;23.55;;
77409;SDS011;66481;51.332;22.804;2023-10-09T22:16:22;37.22;;;21.90;;
77409;SDS011;66481;51.332;22.804;2023-10-09T22:20:28;44.45;;;23.40;;
77409;SDS011;66481;51.332;22.804;2023-10-09T22:24:32;42.95;;;23.67;;
77409;SDS011;66481;51.332;22.804;2023-10-09T22:28:34;47.17;;;23.80;;
77409;SDS011;66481;51.332;22.804;2023-10-09T22:32:41;45.33;;;22.98;;
77409;SDS011;66481;51.332;22.804;2023-10-09T22:36:42;44.13;;;24.25;;
77409;SDS011;66481;51.332;22.804;2023-10-09T22:40:54;41.53;;;24.70;;
77409;SDS011;66481;51.332;22.804;2023-10-09T22:44:58;38.58;;;21.08;;
77409;SDS011;66481;51.332;22.804;2023-10-09T22:49:00;34.72;;;20.80;;
77409;SDS011;66481;51.332;22.804;2023-10-09T22:53:15;40.60;;;21.83;;
77409;SDS011;66481;51.332;22.804;2023-10-09T22:57:22;38.85;;;20.70;;
77409;SDS011;66481;51.332;22.804;2023-10-09T23:01:24;40.53;;;22.58;;
77409;SDS011;66481;51.332;22.804;2023-10-09T23:05:27;41.10;;;22.38;;
77409;SDS011;66481;51.332;22.804;2023-10-09T23:09:40;40.78;;;23.38;;
77409;SDS011;66481;51.332;22.804;2023-10-09T23:13:52;37.30;;;20.52;;
77409;SDS011;66481;51.332;22.804;2023-10-09T23:17:55;36.90;;;20.27;;
77409;SDS011;66481;51.332;22.804;2023-10-09T23:22:05;42.55;;;22.60;;
77409;SDS011;66481;51.332;22.804;2023-10-09T23:26:21;45.22;;;23.02;;
77409;SDS011;66481;51.332;22.804;2023-10-09T23:30:22;39.15;;;22.00;;
77409;SDS011;66481;51.332;22.804;2023-10-09T23:34:27;46.25;;;24.95;;
77409;SDS011;66481;51.332;22.804;2023-10-09T23:38:35;39.25;;;20.65;;
77409;SDS011;66481;51.332;22.804;2023-10-09T23:42:55;34.92;;;19.92;;
77409;SDS011;66481;51.332;22.804;2023-10-09T23:47:01;37.75;;;19.15;;
77409;SDS011;66481;51.332;22.804;2023-10-09T23:51:09;38.05;;;20.88;;
77409;SDS011;66481;51.332;22.804;2023-10-09T23:55:19;43.50;;;21.40;;
77409;SDS011;66481;51.332;22.804;2023-10-09T23:59:32;37.53;;;19.85;;
